SKW3350 KSFO-KPSP
Flight info
| Callsign | SKW3350 |
|---|---|
| Flight time | N/A |
| Altitude | 31000 |
| Route | WESLA5 KAYEX LOSHN CLASN SIZLR3 |
| Aircraft | E75L/M-SDE3GILORVW/S |
Departure
| Time | N/A |
|---|---|
| Airport | San Francisco International Airport (KSFO) |
Arrival
| Time | 2026-05-05 00:08 |
|---|---|
| Airport | Palm Springs International Airport (KPSP) |
| Time | Latitude | Longitude | Altitude | Speed | Heading |
|---|---|---|---|---|---|
| 2026-05-05 00:08 | 33.83283 | -116.51191 | 481 ft | 0 kts | 190° |
| 2026-05-05 00:08 | 33.83273 | -116.51193 | 480 ft | 4 kts | 186° |
| 2026-05-05 00:08 | 33.83223 | -116.51196 | 480 ft | 8 kts | 169° |
| 2026-05-05 00:09 | 33.83161 | -116.51154 | 477 ft | 11 kts | 143° |
| 2026-05-05 00:09 | 33.83091 | -116.51090 | 475 ft | 13 kts | 143° |
| 2026-05-05 00:09 | 33.83009 | -116.51016 | 473 ft | 15 kts | 143° |
| 2026-05-05 00:09 | 33.82916 | -116.50929 | 469 ft | 18 kts | 142° |
| 2026-05-05 00:10 | 33.82806 | -116.50826 | 465 ft | 21 kts | 144° |
| 2026-05-05 00:10 | 33.82682 | -116.50715 | 460 ft | 18 kts | 143° |
| 2026-05-05 00:10 | 33.82571 | -116.50616 | 456 ft | 20 kts | 143° |
| 2026-05-05 00:10 | 33.82451 | -116.50510 | 454 ft | 22 kts | 144° |
| 2026-05-05 00:11 | 33.82355 | -116.50424 | 450 ft | 6 kts | 142° |
| 2026-05-05 00:11 | 33.82325 | -116.50442 | 450 ft | 6 kts | 258° |
| 2026-05-05 00:11 | 33.82332 | -116.50485 | 451 ft | 4 kts | 297° |
| 2026-05-05 00:11 | 33.82350 | -116.50506 | 452 ft | 3 kts | 322° |
| 2026-05-05 00:12 | 33.82361 | -116.50523 | 452 ft | 2 kts | 282° |
| 2026-05-05 00:12 | 33.82358 | -116.50544 | 452 ft | 2 kts | 253° |
| 2026-05-05 00:12 | 33.82352 | -116.50568 | 451 ft | 2 kts | 256° |
| 2026-05-05 00:12 | 33.82348 | -116.50588 | 451 ft | 1 kts | 251° |
| 2026-05-05 00:13 | 33.82346 | -116.50590 | 451 ft | 0 kts | 251° |